N20088 FWKI-HUEN
Flight info
| Callsign | N20088 |
|---|---|
| Flight time | N/A |
| Altitude | 35000 |
| Route | ANTOP1E ANTOP UG656 UTALA/N0474F350 UG656 OVANA/N0476F340 UG656 MB/N0474F350 UG656 APNAD APNAD2A |
| Aircraft | A320/M-SDE3FGHIRWY/LB1 |
Departure
| Time | 2026-04-24 18:55 |
|---|---|
| Airport | Kamuzu International Airport (FWKI) |
Arrival
| Time | N/A |
|---|---|
| Airport | Entebbe International Airport (HUEN) |
| Time | Latitude | Longitude | Altitude | Speed | Heading |
|---|---|---|---|---|---|
| 2026-04-24 18:54 | -13.80079 | 33.93650 | 8586 ft | 293 kts | 45° |
| 2026-04-24 18:55 | -13.76521 | 33.95550 | 10017 ft | 294 kts | 5° |
| 2026-04-24 18:55 | -13.74483 | 33.95481 | 10707 ft | 295 kts | 346° |
| 2026-04-24 18:55 | -13.72582 | 33.94719 | 11389 ft | 295 kts | 327° |
| 2026-04-24 18:56 | -13.71010 | 33.93348 | 11925 ft | 303 kts | 309° |
| 2026-04-24 18:56 | -13.69656 | 33.91630 | 12058 ft | 324 kts | 307° |
| 2026-04-24 18:56 | -13.68224 | 33.89740 | 12193 ft | 346 kts | 307° |
| 2026-04-24 18:56 | -13.66715 | 33.87724 | 12317 ft | 365 kts | 307° |
| 2026-04-24 18:57 | -13.65126 | 33.85603 | 12445 ft | 383 kts | 307° |
| 2026-04-24 18:57 | -13.63415 | 33.83428 | 12570 ft | 399 kts | 312° |
| 2026-04-24 18:57 | -13.61296 | 33.81532 | 12894 ft | 409 kts | 324° |
| 2026-04-24 18:57 | -13.58813 | 33.80080 | 13371 ft | 413 kts | 335° |
| 2026-04-24 18:58 | -13.56070 | 33.79135 | 13861 ft | 418 kts | 346° |
| 2026-04-24 18:58 | -13.53179 | 33.78744 | 14332 ft | 421 kts | 355° |
| 2026-04-24 18:58 | -13.50244 | 33.78530 | 14796 ft | 424 kts | 355° |
| 2026-04-24 18:58 | -13.47290 | 33.78318 | 15246 ft | 427 kts | 355° |
| 2026-04-24 18:59 | -13.44316 | 33.78105 | 15681 ft | 430 kts | 355° |
| 2026-04-24 18:59 | -13.41320 | 33.77892 | 16099 ft | 433 kts | 355° |
| 2026-04-24 18:59 | -13.38308 | 33.77682 | 16520 ft | 435 kts | 355° |
| 2026-04-24 18:59 | -13.35272 | 33.77468 | 16927 ft | 438 kts | 355° |
| 2026-04-24 19:00 | -13.32226 | 33.77246 | 17338 ft | 440 kts | 355° |
| 2026-04-24 19:00 | -13.30205 | 33.77098 | 17603 ft | 442 kts | 355° |
| 2026-04-24 19:00 | -13.27131 | 33.76873 | 17989 ft | 444 kts | 355° |
| 2026-04-24 19:00 | -13.24041 | 33.76647 | 18364 ft | 446 kts | 355° |
| 2026-04-24 19:01 | -13.19919 | 33.76348 | 18840 ft | 449 kts | 355° |
| 2026-04-24 19:01 | -13.16793 | 33.76124 | 19192 ft | 451 kts | 355° |
| 2026-04-24 19:01 | -13.14677 | 33.75971 | 19421 ft | 453 kts | 355° |
| 2026-04-24 19:01 | -13.10504 | 33.75668 | 19859 ft | 456 kts | 355° |
| 2026-04-24 19:02 | -13.08361 | 33.75512 | 20065 ft | 457 kts | 355° |
| 2026-04-24 19:02 | -13.04144 | 33.75207 | 20472 ft | 460 kts | 355° |
| 2026-04-24 19:02 | -13.01980 | 33.75050 | 20669 ft | 462 kts | 355° |
| 2026-04-24 19:02 | -12.98769 | 33.74818 | 20960 ft | 464 kts | 355° |
| 2026-04-24 19:03 | -12.95587 | 33.74589 | 21246 ft | 465 kts | 355° |
| 2026-04-24 19:03 | -12.92349 | 33.74358 | 21518 ft | 467 kts | 355° |
| 2026-04-24 19:03 | -12.89097 | 33.74125 | 21787 ft | 469 kts | 355° |
| 2026-04-24 19:03 | -12.85834 | 33.73890 | 22060 ft | 471 kts | 355° |
| 2026-04-24 19:04 | -12.82561 | 33.73654 | 22330 ft | 472 kts | 355° |
| 2026-04-24 19:04 | -12.79278 | 33.73416 | 22589 ft | 474 kts | 355° |
| 2026-04-24 19:04 | -12.75983 | 33.73178 | 22839 ft | 475 kts | 355° |
| 2026-04-24 19:04 | -12.72676 | 33.72941 | 23079 ft | 477 kts | 355° |
| 2026-04-24 19:05 | -12.69363 | 33.72707 | 23311 ft | 479 kts | 355° |
| 2026-04-24 19:05 | -12.66032 | 33.72470 | 23531 ft | 481 kts | 355° |
| 2026-04-24 19:05 | -12.62696 | 33.72230 | 23849 ft | 480 kts | 355° |
| 2026-04-24 19:05 | -12.59362 | 33.71990 | 24177 ft | 480 kts | 355° |
| 2026-04-24 19:06 | -12.56033 | 33.71750 | 24500 ft | 479 kts | 355° |
| 2026-04-24 19:06 | -12.52705 | 33.71513 | 24809 ft | 479 kts | 355° |
| 2026-04-24 19:06 | -12.49379 | 33.71278 | 25133 ft | 479 kts | 355° |
| 2026-04-24 19:06 | -12.46056 | 33.71041 | 25451 ft | 479 kts | 355° |
| 2026-04-24 19:07 | -12.42734 | 33.70802 | 25770 ft | 478 kts | 355° |
| 2026-04-24 19:07 | -12.39416 | 33.70563 | 26090 ft | 478 kts | 355° |
| 2026-04-24 19:07 | -12.36100 | 33.70323 | 26394 ft | 478 kts | 355° |
| 2026-04-24 19:07 | -12.32782 | 33.70085 | 26685 ft | 478 kts | 355° |
| 2026-04-24 19:08 | -12.29468 | 33.69847 | 27028 ft | 477 kts | 355° |
| 2026-04-24 19:08 | -12.26154 | 33.69608 | 27366 ft | 476 kts | 355° |
| 2026-04-24 19:08 | -12.22862 | 33.69371 | 27697 ft | 475 kts | 355° |
| 2026-04-24 19:08 | -12.19566 | 33.69138 | 28019 ft | 474 kts | 355° |
| 2026-04-24 19:09 | -12.16311 | 33.68909 | 28329 ft | 474 kts | 355° |
| 2026-04-24 19:09 | -12.12978 | 33.68674 | 28645 ft | 474 kts | 355° |
| 2026-04-24 19:09 | -12.09735 | 33.68441 | 28932 ft | 473 kts | 355° |
| 2026-04-24 19:09 | -12.06415 | 33.68198 | 29234 ft | 473 kts | 355° |
| 2026-04-24 19:10 | -12.03180 | 33.67960 | 29543 ft | 472 kts | 355° |
| 2026-04-24 19:10 | -11.99908 | 33.67724 | 29862 ft | 471 kts | 355° |
| 2026-04-24 19:10 | -11.96636 | 33.67491 | 30179 ft | 470 kts | 355° |
| 2026-04-24 19:10 | -11.93376 | 33.67260 | 30480 ft | 469 kts | 355° |
| 2026-04-24 19:11 | -11.90127 | 33.67030 | 30770 ft | 469 kts | 355° |
| 2026-04-24 19:11 | -11.86872 | 33.66798 | 31060 ft | 468 kts | 355° |
| 2026-04-24 19:11 | -11.83619 | 33.66567 | 31337 ft | 468 kts | 355° |
| 2026-04-24 19:11 | -11.80374 | 33.66337 | 31618 ft | 467 kts | 355° |
| 2026-04-24 19:12 | -11.77133 | 33.66106 | 31898 ft | 467 kts | 355° |
| 2026-04-24 19:12 | -11.73896 | 33.65875 | 32180 ft | 466 kts | 355° |
| 2026-04-24 19:12 | -11.70664 | 33.65642 | 32451 ft | 465 kts | 355° |
| 2026-04-24 19:12 | -11.67435 | 33.65410 | 32706 ft | 465 kts | 355° |
| 2026-04-24 19:13 | -11.65296 | 33.65257 | 32898 ft | 464 kts | 355° |
| 2026-04-24 19:13 | -11.60981 | 33.64950 | 33239 ft | 464 kts | 355° |
| 2026-04-24 19:13 | -11.57765 | 33.64722 | 33499 ft | 463 kts | 355° |
| 2026-04-24 19:13 | -11.54552 | 33.64493 | 33743 ft | 462 kts | 355° |
| 2026-04-24 19:14 | -11.51387 | 33.64268 | 33998 ft | 462 kts | 355° |
| 2026-04-24 19:14 | -11.48176 | 33.64040 | 34251 ft | 461 kts | 355° |
| 2026-04-24 19:14 | -11.44977 | 33.63808 | 34495 ft | 461 kts | 355° |
| 2026-04-24 19:14 | -11.41789 | 33.63574 | 34736 ft | 460 kts | 355° |
| 2026-04-24 19:15 | -11.38588 | 33.63340 | 34938 ft | 460 kts | 355° |
| 2026-04-24 19:15 | -11.32166 | 33.62863 | 35010 ft | 465 kts | 355° |
| 2026-04-24 19:16 | -11.22452 | 33.62155 | 35010 ft | 466 kts | 355° |
| 2026-04-24 19:16 | -11.15982 | 33.61679 | 35006 ft | 466 kts | 355° |
| 2026-04-24 19:17 | -11.09515 | 33.61211 | 35006 ft | 466 kts | 355° |
| 2026-04-24 19:17 | -11.03046 | 33.60743 | 35006 ft | 466 kts | 355° |
| 2026-04-24 19:18 | -10.96567 | 33.60272 | 35003 ft | 466 kts | 355° |
| 2026-04-24 19:18 | -10.90139 | 33.59806 | 35001 ft | 467 kts | 355° |
| 2026-04-24 19:19 | -10.83654 | 33.59334 | 35007 ft | 467 kts | 355° |
| 2026-04-24 19:19 | -10.77152 | 33.58856 | 35004 ft | 468 kts | 355° |
| 2026-04-24 19:20 | -10.70650 | 33.58378 | 35002 ft | 469 kts | 355° |
| 2026-04-24 19:20 | -10.64142 | 33.57893 | 35012 ft | 469 kts | 354° |
| 2026-04-24 19:21 | -10.57637 | 33.57383 | 35008 ft | 469 kts | 354° |
| 2026-04-24 19:21 | -10.51135 | 33.56870 | 35019 ft | 468 kts | 354° |
| 2026-04-24 19:22 | -10.44637 | 33.56369 | 35021 ft | 468 kts | 354° |
| 2026-04-24 19:22 | -10.38138 | 33.55871 | 35015 ft | 468 kts | 354° |
| 2026-04-24 19:23 | -10.31638 | 33.55375 | 35011 ft | 468 kts | 355° |
| 2026-04-24 19:23 | -10.25136 | 33.54878 | 35011 ft | 468 kts | 354° |
| 2026-04-24 19:24 | -10.18674 | 33.54376 | 35015 ft | 468 kts | 354° |
| 2026-04-24 19:24 | -10.12173 | 33.53873 | 35011 ft | 469 kts | 354° |
| 2026-04-24 19:25 | -10.05670 | 33.53372 | 35013 ft | 468 kts | 354° |
| 2026-04-24 19:25 | -9.99171 | 33.52875 | 35015 ft | 468 kts | 355° |
| 2026-04-24 19:26 | -9.92674 | 33.52380 | 35011 ft | 468 kts | 354° |
| 2026-04-24 19:26 | -9.86179 | 33.51876 | 35019 ft | 468 kts | 354° |
| 2026-04-24 19:27 | -9.79681 | 33.51374 | 35020 ft | 467 kts | 355° |
| 2026-04-24 19:27 | -9.73196 | 33.50879 | 35019 ft | 467 kts | 354° |
| 2026-04-24 19:28 | -9.66708 | 33.50381 | 35015 ft | 468 kts | 354° |
| 2026-04-24 19:28 | -9.60210 | 33.49887 | 35013 ft | 467 kts | 355° |
| 2026-04-24 19:29 | -9.50510 | 33.49306 | 35013 ft | 468 kts | 356° |
| 2026-04-24 19:30 | -9.44009 | 33.48955 | 34997 ft | 468 kts | 356° |
| 2026-04-24 19:30 | -9.37489 | 33.48582 | 34998 ft | 469 kts | 355° |
| 2026-04-24 19:31 | -9.30974 | 33.48190 | 35000 ft | 470 kts | 355° |
| 2026-04-24 19:31 | -9.24439 | 33.47791 | 35003 ft | 470 kts | 355° |
| 2026-04-24 19:32 | -9.17913 | 33.47393 | 35014 ft | 470 kts | 355° |
| 2026-04-24 19:32 | -9.11386 | 33.46991 | 35005 ft | 470 kts | 355° |
| 2026-04-24 19:33 | -9.04854 | 33.46589 | 35000 ft | 470 kts | 355° |
| 2026-04-24 19:33 | -8.98316 | 33.46189 | 34998 ft | 471 kts | 355° |
| 2026-04-24 19:34 | -8.91774 | 33.45780 | 35010 ft | 471 kts | 354° |
| 2026-04-24 19:34 | -8.85262 | 33.45101 | 35012 ft | 470 kts | 352° |
| 2026-04-24 19:35 | -8.78782 | 33.44201 | 34997 ft | 471 kts | 351° |
| 2026-04-24 19:35 | -8.72287 | 33.43317 | 35011 ft | 471 kts | 352° |
| 2026-04-24 19:36 | -8.65833 | 33.42515 | 35023 ft | 470 kts | 352° |
| 2026-04-24 19:36 | -8.59340 | 33.41726 | 35024 ft | 469 kts | 352° |
| 2026-04-24 19:37 | -8.52856 | 33.40927 | 35024 ft | 469 kts | 352° |
| 2026-04-24 19:37 | -8.46385 | 33.40121 | 35020 ft | 468 kts | 352° |
| 2026-04-24 19:38 | -8.39918 | 33.39317 | 35021 ft | 468 kts | 352° |
| 2026-04-24 19:38 | -8.33450 | 33.38513 | 35020 ft | 468 kts | 352° |
| 2026-04-24 19:39 | -8.27000 | 33.37711 | 35017 ft | 467 kts | 352° |
| 2026-04-24 19:39 | -8.20537 | 33.36909 | 35018 ft | 467 kts | 352° |
| 2026-04-24 19:40 | -8.14082 | 33.36108 | 35013 ft | 467 kts | 352° |
| 2026-04-24 19:40 | -8.07670 | 33.35320 | 35011 ft | 467 kts | 352° |
| 2026-04-24 19:41 | -8.01215 | 33.34526 | 35013 ft | 467 kts | 352° |
| 2026-04-24 19:41 | -7.94763 | 33.33714 | 35007 ft | 467 kts | 352° |
| 2026-04-24 19:42 | -7.88314 | 33.32916 | 35006 ft | 467 kts | 352° |
| 2026-04-24 19:42 | -7.81848 | 33.32123 | 35004 ft | 468 kts | 352° |
| 2026-04-24 19:43 | -7.75386 | 33.31336 | 35006 ft | 468 kts | 352° |
| 2026-04-24 19:43 | -7.68931 | 33.30540 | 35004 ft | 468 kts | 352° |
| 2026-04-24 19:44 | -7.62465 | 33.29751 | 35001 ft | 468 kts | 352° |
| 2026-04-24 19:44 | -7.55979 | 33.29038 | 35012 ft | 468 kts | 353° |
| 2026-04-24 19:45 | -7.49498 | 33.28342 | 35006 ft | 468 kts | 353° |
| 2026-04-24 19:45 | -7.43023 | 33.27634 | 35010 ft | 468 kts | 353° |
| 2026-04-24 19:46 | -7.36554 | 33.26915 | 35015 ft | 468 kts | 353° |
| 2026-04-24 19:46 | -7.30123 | 33.26203 | 35012 ft | 467 kts | 353° |
| 2026-04-24 19:47 | -7.23658 | 33.25488 | 35012 ft | 467 kts | 353° |
| 2026-04-24 19:47 | -7.17195 | 33.24773 | 35010 ft | 467 kts | 353° |
| 2026-04-24 19:48 | -7.10734 | 33.24057 | 35010 ft | 467 kts | 353° |
| 2026-04-24 19:48 | -7.02097 | 33.23100 | 35011 ft | 467 kts | 353° |
| 2026-04-24 19:49 | -6.89225 | 33.21676 | 35018 ft | 466 kts | 353° |
| 2026-04-24 19:50 | -6.76312 | 33.20248 | 35007 ft | 466 kts | 353° |
| 2026-04-24 19:51 | -6.66630 | 33.19178 | 35006 ft | 467 kts | 353° |
| 2026-04-24 19:52 | -6.56949 | 33.18106 | 35006 ft | 466 kts | 353° |
| 2026-04-24 19:52 | -6.50489 | 33.17393 | 35009 ft | 466 kts | 353° |
| 2026-04-24 19:53 | -6.44045 | 33.16675 | 35007 ft | 466 kts | 353° |
| 2026-04-24 19:54 | -6.34411 | 33.15624 | 35005 ft | 466 kts | 353° |
| 2026-04-24 19:54 | -6.27961 | 33.14914 | 35005 ft | 466 kts | 353° |
| 2026-04-24 19:55 | -6.22548 | 33.14318 | 35004 ft | 466 kts | 353° |
| 2026-04-24 19:55 | -6.15055 | 33.13489 | 35006 ft | 466 kts | 353° |
| 2026-04-24 19:56 | -6.10738 | 33.13010 | 35011 ft | 466 kts | 353° |